createdAt,value
2022-12-12T00:00:57.468Z,100776.77
2022-12-12T00:03:27.689Z,100783.60
2022-12-12T00:05:56.722Z,100787.59
2022-12-12T00:08:24.492Z,100788.02
2022-12-12T00:10:52.180Z,100792.00
2022-12-12T00:13:19.863Z,100784.02
2022-12-12T00:15:47.597Z,100784.41
2022-12-12T00:18:15.240Z,100788.44
2022-12-12T00:20:42.981Z,100792.85
2022-12-12T00:23:10.583Z,100784.84
2022-12-12T00:25:38.212Z,100785.23
2022-12-12T00:28:05.973Z,100788.47
2022-12-12T00:30:33.661Z,100785.66
2022-12-12T00:33:01.308Z,100784.45
2022-12-12T00:35:28.979Z,100791.64
2022-12-12T00:37:56.761Z,100794.45
2022-12-12T00:40:24.395Z,100790.86
2022-12-12T00:42:52.080Z,100792.46
2022-12-12T00:45:19.773Z,100786.87
2022-12-12T00:47:47.406Z,100782.03
2022-12-12T00:50:15.092Z,100793.24
2022-12-12T00:52:42.855Z,100793.24
2022-12-12T00:55:15.487Z,100796.45
2022-12-12T00:57:43.410Z,100788.87
2022-12-12T01:00:15.028Z,100790.83
2022-12-12T01:02:42.814Z,100790.43
2022-12-12T01:05:11.697Z,100788.87
2022-12-12T01:07:39.676Z,100798.87
2022-12-12T01:10:08.684Z,100796.05
2022-12-12T01:12:36.749Z,100794.06
2022-12-12T01:15:06.690Z,100796.05
2022-12-12T01:17:39.024Z,100796.48
2022-12-12T01:20:08.820Z,100801.29
2022-12-12T01:22:38.271Z,100803.28
2022-12-12T01:25:06.129Z,100814.89
2022-12-12T01:27:33.914Z,100809.30
2022-12-12T01:30:03.464Z,100817.70
2022-12-12T01:32:31.114Z,100812.12
2022-12-12T01:34:58.929Z,100820.09
2022-12-12T01:37:27.056Z,100820.52
2022-12-12T01:39:54.757Z,100828.53
2022-12-12T01:42:22.406Z,100821.30
2022-12-12T01:44:52.960Z,100826.50
2022-12-12T01:47:22.712Z,100827.71
2022-12-12T01:50:04.500Z,100829.70
2022-12-12T01:52:35.498Z,100836.51
2022-12-12T01:55:06.515Z,100834.12
2022-12-12T01:57:41.053Z,100834.91
2022-12-12T02:00:11.210Z,100838.90
2022-12-12T02:02:40.644Z,100840.10
2022-12-12T02:05:18.178Z,100842.91
2022-12-12T02:07:45.950Z,100840.10
2022-12-12T02:10:14.119Z,100838.90
2022-12-12T02:12:41.934Z,100838.50
2022-12-12T02:15:10.368Z,100847.27
2022-12-12T02:17:49.862Z,100842.46
2022-12-12T02:20:45.773Z,100842.07
2022-12-12T02:23:45.336Z,100840.86
2022-12-12T02:26:44.037Z,100850.86
2022-12-12T02:29:21.374Z,100848.05
2022-12-12T02:32:28.040Z,100850.44
2022-12-12T02:35:18.088Z,100850.80
2022-12-12T02:37:54.404Z,100850.41
2022-12-12T02:40:35.720Z,100848.38
2022-12-12T02:43:35.090Z,100852.76
2022-12-12T02:46:12.597Z,100847.98
2022-12-12T02:48:52.265Z,100854.79
2022-12-12T02:51:21.051Z,100847.16
2022-12-12T02:53:48.834Z,100853.19
2022-12-12T02:56:44.508Z,100856.42
2022-12-12T02:59:17.647Z,100855.64
2022-12-12T03:02:08.310Z,100854.82
2022-12-12T03:05:16.667Z,100858.84
2022-12-12T03:08:12.702Z,100856.81
2022-12-12T03:11:04.840Z,100854.46
2022-12-12T03:13:54.245Z,100856.81
2022-12-12T03:16:34.013Z,100847.23
2022-12-12T03:19:11.916Z,100858.02
2022-12-12T03:21:51.779Z,100855.24
2022-12-12T03:24:49.126Z,100860.84
2022-12-12T03:27:26.259Z,100859.23
2022-12-12T03:30:00.149Z,100860.80
2022-12-12T03:32:34.588Z,100855.21
2022-12-12T03:35:12.319Z,100856.42
2022-12-12T03:37:46.904Z,100859.66
2022-12-12T03:40:20.672Z,100855.64
2022-12-12T03:43:01.752Z,100846.05
2022-12-12T03:45:48.321Z,100857.63
2022-12-12T03:48:35.634Z,100861.66
2022-12-12T03:51:12.719Z,100853.25
2022-12-12T03:53:44.523Z,100856.84
2022-12-12T03:56:30.836Z,100861.20
2022-12-12T03:59:27.021Z,100862.80
2022-12-12T04:02:01.150Z,100870.02
2022-12-12T04:04:52.013Z,100862.44
2022-12-12T04:07:36.660Z,100861.63
2022-12-12T04:10:24.380Z,100865.22
2022-12-12T04:13:11.824Z,100864.04
2022-12-12T04:16:05.420Z,100864.44
2022-12-12T04:18:42.062Z,100871.66
2022-12-12T04:21:43.625Z,100868.85
2022-12-12T04:24:29.233Z,100883.27
2022-12-12T04:27:03.964Z,100881.66
2022-12-12T04:29:54.517Z,100878.10
2022-12-12T04:32:53.583Z,100883.30
2022-12-12T04:35:26.528Z,100881.70
2022-12-12T04:37:57.512Z,100878.46
2022-12-12T04:40:32.277Z,100885.27
2022-12-12T04:43:17.545Z,100894.09
2022-12-12T04:45:49.477Z,100896.91
2022-12-12T04:48:26.623Z,100893.70
2022-12-12T04:50:54.898Z,100890.10
2022-12-12T04:53:35.778Z,100893.30
2022-12-12T04:56:10.632Z,100891.31
2022-12-12T04:58:40.661Z,100900.47
2022-12-12T05:01:20.276Z,100906.09
2022-12-12T05:03:57.212Z,100903.70
2022-12-12T05:06:51.532Z,100905.27
2022-12-12T05:09:20.604Z,100905.67
2022-12-12T05:11:49.400Z,100912.08
2022-12-12T05:14:18.508Z,100909.23
2022-12-12T05:16:51.047Z,100910.05
2022-12-12T05:19:18.788Z,100910.45
2022-12-12T05:21:46.638Z,100915.25
2022-12-12T05:24:14.249Z,100906.03
2022-12-12T05:26:42.325Z,100917.21
2022-12-12T05:29:10.022Z,100914.43
2022-12-12T05:31:37.720Z,100918.81
2022-12-12T05:34:06.277Z,100913.19
2022-12-12T05:36:33.918Z,100911.62
2022-12-12T05:39:01.579Z,100911.20
2022-12-12T05:41:29.239Z,100923.20
2022-12-12T05:43:56.912Z,100925.59
2022-12-12T05:46:24.610Z,100926.40
2022-12-12T05:48:52.760Z,100926.01
2022-12-12T05:51:21.408Z,100927.97
2022-12-12T05:53:49.106Z,100931.96
2022-12-12T05:56:16.889Z,100943.57
2022-12-12T05:58:44.687Z,100943.93
2022-12-12T06:01:12.616Z,100942.72
2022-12-12T06:03:40.330Z,100944.71
2022-12-12T06:06:08.083Z,100948.73
2022-12-12T06:08:35.808Z,100948.73
2022-12-12T06:11:07.606Z,100949.52
2022-12-12T06:13:36.177Z,100952.30
2022-12-12T06:16:16.943Z,100955.11
2022-12-12T06:18:45.615Z,100951.52
2022-12-12T06:21:14.206Z,100951.94
2022-12-12T06:23:43.956Z,100947.46
2022-12-12T06:26:13.816Z,100951.48
2022-12-12T06:28:42.490Z,100957.04
2022-12-12T06:31:12.266Z,100965.02
2022-12-12T06:33:41.687Z,100959.79
2022-12-12T06:36:25.177Z,100960.15
2022-12-12T06:38:53.924Z,100957.73
2022-12-12T06:41:22.515Z,100952.10
2022-12-12T06:43:50.413Z,100955.30
2022-12-12T06:46:24.376Z,100957.34
2022-12-12T06:48:52.914Z,100955.77
2022-12-12T06:51:23.699Z,100959.33
2022-12-12T06:53:51.569Z,100958.19
2022-12-12T06:56:24.460Z,100961.00
2022-12-12T06:58:52.929Z,100954.62
2022-12-12T07:01:22.598Z,100973.03
2022-12-12T07:03:51.840Z,100974.63
2022-12-12T07:06:21.525Z,100977.45
2022-12-12T07:08:49.556Z,100977.05
2022-12-12T07:11:20.978Z,100979.51
2022-12-12T07:13:50.088Z,100979.93
2022-12-12T07:16:18.661Z,100976.73
2022-12-12T07:18:46.867Z,100979.54
2022-12-12T07:21:17.254Z,100981.14
2022-12-12T07:23:45.439Z,100990.03
2022-12-12T07:26:16.080Z,100987.91
2022-12-12T07:28:43.887Z,100985.42
2022-12-12T07:31:15.132Z,100989.80
2022-12-12T07:33:44.666Z,100987.38
2022-12-12T07:36:14.192Z,100997.82
2022-12-12T07:38:42.322Z,101001.45
2022-12-12T07:41:12.753Z,100991.44
2022-12-12T07:43:44.387Z,100997.06
2022-12-12T07:46:15.682Z,101003.09
2022-12-12T07:48:43.570Z,101002.69
2022-12-12T07:51:11.274Z,100999.45
2022-12-12T07:53:38.985Z,101005.05
2022-12-12T07:56:12.887Z,100999.84
2022-12-12T07:58:41.153Z,101012.30
2022-12-12T08:01:15.308Z,101011.88
2022-12-12T08:03:47.937Z,101018.29
2022-12-12T08:06:19.971Z,101021.49
2022-12-12T08:08:48.821Z,101025.52
2022-12-12T08:11:19.263Z,101030.29
2022-12-12T08:13:47.503Z,101033.88
2022-12-12T08:16:21.794Z,101029.47
2022-12-12T08:18:50.528Z,101034.70
2022-12-12T08:21:25.152Z,101046.31
2022-12-12T08:24:00.559Z,101044.71
2022-12-12T08:26:29.327Z,101051.12
2022-12-12T08:28:57.975Z,101052.72
2022-12-12T08:31:26.511Z,101056.77
2022-12-12T08:33:54.843Z,101047.20
2022-12-12T08:36:25.637Z,101050.01
2022-12-12T08:38:53.700Z,101043.99
2022-12-12T08:41:21.830Z,101048.80
2022-12-12T08:43:49.642Z,101051.22
2022-12-12T08:46:19.215Z,101056.45
2022-12-12T08:48:47.764Z,101055.24
2022-12-12T08:51:17.949Z,101057.63
2022-12-12T08:53:47.589Z,101059.16
2022-12-12T08:56:16.485Z,101057.20
2022-12-12T08:58:44.697Z,101056.77
2022-12-12T09:01:14.689Z,101064.36
2022-12-12T09:03:42.444Z,101065.21
2022-12-12T09:06:11.461Z,101070.02
2022-12-12T09:08:39.944Z,101072.02
2022-12-12T09:11:08.556Z,101075.64
2022-12-12T09:13:37.579Z,101076.43
2022-12-12T09:16:06.944Z,101083.66
2022-12-12T09:18:35.825Z,101091.30
2022-12-12T09:21:04.342Z,101089.67
2022-12-12T09:23:32.072Z,101093.30
2022-12-12T09:25:59.873Z,101090.52
2022-12-12T09:28:28.053Z,101084.93
2022-12-12T09:30:56.254Z,101094.52
2022-12-12T09:33:24.000Z,101084.93
2022-12-12T09:36:02.446Z,101080.55
2022-12-12T09:38:30.816Z,101086.56
2022-12-12T09:41:10.624Z,101083.75
2022-12-12T09:44:00.819Z,101072.93
2022-12-12T09:46:40.833Z,101078.98
2022-12-12T09:49:36.033Z,101075.77
2022-12-12T09:52:10.520Z,101072.57
2022-12-12T09:54:38.158Z,101070.58
2022-12-12T09:57:25.874Z,101071.39
2022-12-12T10:00:09.184Z,101062.95
2022-12-12T10:03:14.487Z,101064.59
2022-12-12T10:06:20.536Z,101066.59
2022-12-12T10:09:08.737Z,101064.59
2022-12-12T10:11:55.608Z,101066.20
2022-12-12T10:14:38.053Z,101067.41
2022-12-12T10:17:12.596Z,101062.99
2022-12-12T10:19:49.149Z,101053.77
2022-12-12T10:22:30.149Z,101056.58
2022-12-12T10:25:07.213Z,101052.98
2022-12-12T10:27:35.657Z,101050.17
2022-12-12T10:30:16.677Z,101040.55
2022-12-12T10:33:02.716Z,101036.53
2022-12-12T10:35:44.557Z,101037.74
2022-12-12T10:38:21.917Z,101043.37
2022-12-12T10:40:58.612Z,101036.14
2022-12-12T10:43:38.714Z,101031.34
2022-12-12T10:46:09.510Z,101040.16
2022-12-12T10:48:37.231Z,101039.34
2022-12-12T10:51:09.749Z,101040.95
2022-12-12T10:53:37.499Z,101042.55
2022-12-12T10:56:09.851Z,101045.76
2022-12-12T10:58:45.735Z,101045.76
2022-12-12T11:02:08.487Z,101048.57
2022-12-12T11:04:25.270Z,101054.59
2022-12-12T11:06:55.040Z,101058.21
2022-12-12T11:09:28.433Z,101053.77
2022-12-12T11:12:04.001Z,101050.95
2022-12-12T11:14:39.079Z,101044.12
2022-12-12T11:17:22.066Z,101048.14
2022-12-12T11:19:49.834Z,101045.30
2022-12-12T11:22:17.628Z,101038.89
2022-12-12T11:24:48.119Z,101037.22
2022-12-12T11:27:32.023Z,101031.20
2022-12-12T11:30:24.004Z,101028.36
2022-12-12T11:32:55.931Z,101027.58
2022-12-12T11:35:28.256Z,101029.54
2022-12-12T11:38:02.010Z,101022.70
2022-12-12T11:40:37.911Z,101020.74
2022-12-12T11:43:25.204Z,101030.32
2022-12-12T11:46:15.890Z,101028.78
2022-12-12T11:48:57.422Z,101012.70
2022-12-12T11:51:51.329Z,101017.54
2022-12-12T11:54:27.546Z,101016.72
2022-12-12T11:57:04.525Z,101022.77
2022-12-12T11:59:43.740Z,101025.97
2022-12-12T12:02:35.903Z,101021.55
2022-12-12T12:05:30.909Z,101000.66
2022-12-12T12:08:37.172Z,100999.84
2022-12-12T12:11:31.095Z,100994.22
2022-12-12T12:14:31.259Z,100993.83
2022-12-12T12:17:25.625Z,100995.82
2022-12-12T12:20:01.993Z,100995.43
2022-12-12T12:22:32.594Z,100999.03
2022-12-12T12:25:28.012Z,101007.04
2022-12-12T12:28:17.440Z,100986.54
2022-12-12T12:31:00.896Z,100988.95
2022-12-12T12:33:48.899Z,100985.33
2022-12-12T12:36:27.602Z,100992.98
2022-12-12T12:39:19.710Z,100990.16
2022-12-12T12:42:24.891Z,100984.94
2022-12-12T12:45:14.216Z,100992.55
2022-12-12T12:47:53.509Z,100988.56
2022-12-12T12:50:46.837Z,100989.74
2022-12-12T12:54:00.580Z,100981.66
2022-12-12T12:56:31.811Z,100978.07
2022-12-12T12:59:02.876Z,100964.79
2022-12-12T13:01:36.225Z,100970.05
2022-12-12T13:04:20.213Z,100953.97
2022-12-12T13:06:47.776Z,100963.58
2022-12-12T13:09:39.460Z,100956.35
2022-12-12T13:12:22.458Z,100950.70
2022-12-12T13:14:56.071Z,100944.32
2022-12-12T13:17:31.997Z,100942.72
2022-12-12T13:19:59.901Z,100952.37
2022-12-12T13:22:44.062Z,100956.35
2022-12-12T13:25:30.092Z,100958.38
2022-12-12T13:28:00.963Z,100943.50
2022-12-12T13:31:03.873Z,100934.67
2022-12-12T13:33:48.156Z,100931.89
2022-12-12T13:36:29.669Z,100938.70
2022-12-12T13:39:01.222Z,100928.30
2022-12-12T13:41:49.224Z,100922.25
2022-12-12T13:44:40.334Z,100928.30
2022-12-12T13:47:23.137Z,100936.73
2022-12-12T13:50:00.537Z,100924.73
2022-12-12T13:52:28.185Z,100929.57
2022-12-12T13:55:02.778Z,100926.37
2022-12-12T13:57:32.212Z,100921.20
2022-12-12T14:00:00.105Z,100935.66
2022-12-12T14:02:34.957Z,100925.23
2022-12-12T14:05:16.605Z,100926.01
2022-12-12T14:07:53.944Z,100918.78
2022-12-12T14:10:35.264Z,100911.95
2022-12-12T14:13:28.028Z,100909.59
2022-12-12T14:15:58.328Z,100916.07
2022-12-12T14:18:51.923Z,100914.04
2022-12-12T14:21:22.294Z,100911.66
2022-12-12T14:23:52.280Z,100922.51
2022-12-12T14:26:29.040Z,100921.73
2022-12-12T14:29:18.192Z,100919.30
2022-12-12T14:32:02.556Z,100914.10
2022-12-12T14:34:46.576Z,100903.28
2022-12-12T14:37:14.192Z,100918.13
2022-12-12T14:39:48.046Z,100913.32
2022-12-12T14:43:19.832Z,100904.49
2022-12-12T14:45:36.039Z,100910.54
2022-12-12T14:48:19.066Z,100914.17
2022-12-12T14:50:57.472Z,100912.18
2022-12-12T14:53:45.983Z,100923.00
2022-12-12T14:56:22.986Z,100920.58
2022-12-12T14:59:01.712Z,100931.05
2022-12-12T15:01:38.841Z,100921.01
2022-12-12T15:04:14.026Z,100939.05
2022-12-12T15:06:44.073Z,100941.09
2022-12-12T15:09:36.008Z,100941.09
2022-12-12T15:12:12.757Z,100937.88
2022-12-12T15:14:52.945Z,100939.88
2022-12-12T15:17:28.417Z,100936.30
2022-12-12T15:20:04.972Z,100924.24
2022-12-12T15:22:35.448Z,100925.45
2022-12-12T15:25:19.225Z,100933.46
2022-12-12T15:27:55.700Z,100919.47
2022-12-12T15:30:40.492Z,100909.82
2022-12-12T15:33:38.760Z,100908.61
2022-12-12T15:36:18.989Z,100898.21
2022-12-12T15:38:46.778Z,100904.63
2022-12-12T15:41:15.498Z,100899.85
2022-12-12T15:43:44.392Z,100900.63
2022-12-12T15:46:16.386Z,100910.25
2022-12-12T15:48:45.606Z,100909.46
2022-12-12T15:51:18.357Z,100905.83
2022-12-12T15:53:52.279Z,100910.28
2022-12-12T15:56:22.672Z,100925.09
2022-12-12T15:59:00.075Z,100923.46
2022-12-12T16:01:30.184Z,100927.91
2022-12-12T16:03:59.995Z,100923.88
2022-12-12T16:06:30.595Z,100916.30
2022-12-12T16:09:02.854Z,100915.87
2022-12-12T16:11:50.477Z,100920.68
2022-12-12T16:14:42.364Z,100930.69
2022-12-12T16:17:22.766Z,100921.07
2022-12-12T16:20:04.058Z,100923.85
2022-12-12T16:22:37.684Z,100927.09
2022-12-12T16:25:21.049Z,100927.48
2022-12-12T16:28:09.239Z,100933.50
2022-12-12T16:30:38.627Z,100922.67
2022-12-12T16:33:36.500Z,100925.48
2022-12-12T16:36:07.509Z,100921.04
2022-12-12T16:38:36.167Z,100927.45
2022-12-12T16:41:15.641Z,100922.67
2022-12-12T16:43:43.350Z,100933.07
2022-12-12T16:46:20.513Z,100941.09
2022-12-12T16:48:49.033Z,100937.48
2022-12-12T16:51:19.284Z,100935.85
2022-12-12T16:53:46.977Z,100930.62
2022-12-12T16:56:14.688Z,100935.06
2022-12-12T16:58:42.314Z,100939.88
2022-12-12T17:01:11.153Z,100941.84
2022-12-12T17:03:38.932Z,100942.29
2022-12-12T17:06:06.968Z,100943.08
2022-12-12T17:08:34.702Z,100947.10
2022-12-12T17:11:10.040Z,100931.89
2022-12-12T17:13:41.976Z,100937.09
2022-12-12T17:16:09.723Z,100940.30
2022-12-12T17:18:37.440Z,100939.05
2022-12-12T17:21:05.107Z,100941.05
2022-12-12T17:23:32.995Z,100942.26
2022-12-12T17:26:04.965Z,100939.41
2022-12-12T17:28:34.829Z,100935.79
2022-12-12T17:31:03.413Z,100933.37
2022-12-12T17:33:31.463Z,100938.92
2022-12-12T17:36:04.463Z,100933.30
2022-12-12T17:38:32.389Z,100940.07
2022-12-12T17:41:05.248Z,100935.63
2022-12-12T17:43:33.058Z,100933.98
2022-12-12T17:46:03.437Z,100928.36
2022-12-12T17:48:33.429Z,100921.13
2022-12-12T17:51:06.246Z,100925.91
2022-12-12T17:53:39.352Z,100922.70
2022-12-12T17:56:12.423Z,100919.92
2022-12-12T17:58:43.242Z,100922.70
2022-12-12T18:01:13.596Z,100919.92
2022-12-12T18:03:42.027Z,100918.72
2022-12-12T18:06:10.462Z,100912.77
2022-12-12T18:08:39.138Z,100911.13
2022-12-12T18:11:08.950Z,100912.77
2022-12-12T18:13:37.181Z,100912.02
2022-12-12T18:16:05.067Z,100907.60
2022-12-12T18:18:33.452Z,100912.83
2022-12-12T18:21:12.968Z,100911.23
2022-12-12T18:23:44.019Z,100911.66
2022-12-12T18:26:23.524Z,100913.62
2022-12-12T18:28:55.936Z,100914.43
2022-12-12T18:31:23.970Z,100914.01
2022-12-12T18:33:52.713Z,100910.45
2022-12-12T18:36:23.159Z,100909.20
2022-12-12T18:38:51.474Z,100900.80
2022-12-12T18:41:19.362Z,100903.58
2022-12-12T18:43:47.158Z,100899.13
2022-12-12T18:46:17.855Z,100889.13
2022-12-12T18:48:47.474Z,100904.30
2022-12-12T18:51:18.124Z,100897.07
2022-12-12T18:53:47.100Z,100901.87
2022-12-12T18:56:17.671Z,100891.45
2022-12-12T18:58:45.911Z,100893.05
2022-12-12T19:01:19.723Z,100886.24
2022-12-12T19:03:50.078Z,100894.62
2022-12-12T19:06:21.043Z,100889.88
2022-12-12T19:08:49.888Z,100888.73
2022-12-12T19:11:18.312Z,100879.57
2022-12-12T19:13:47.589Z,100881.96
2022-12-12T19:16:18.629Z,100869.17
2022-12-12T19:18:47.062Z,100874.05
2022-12-12T19:21:21.936Z,100868.42
2022-12-12T19:23:50.244Z,100868.78
2022-12-12T19:26:28.020Z,100869.53
2022-12-12T19:29:05.541Z,100865.55
2022-12-12T19:31:37.183Z,100849.52
2022-12-12T19:34:07.463Z,100849.88
2022-12-12T19:36:37.006Z,100855.90
2022-12-12T19:39:07.384Z,100853.12
2022-12-12T19:41:35.979Z,100852.76
2022-12-12T19:44:04.395Z,100858.35
2022-12-12T19:46:33.600Z,100846.77
2022-12-12T19:49:04.130Z,100847.92
2022-12-12T19:51:37.315Z,100849.52
2022-12-12T19:54:11.251Z,100851.95
2022-12-12T19:56:41.956Z,100846.71
2022-12-12T19:59:12.621Z,100853.52
2022-12-12T20:01:40.987Z,100849.88
2022-12-12T20:04:20.442Z,100853.94
2022-12-12T20:06:50.404Z,100844.72
2022-12-12T20:09:24.200Z,100845.92
2022-12-12T20:11:52.000Z,100851.16
2022-12-12T20:14:22.454Z,100846.38
2022-12-12T20:16:51.780Z,100849.98
2022-12-12T20:19:20.766Z,100852.01
2022-12-12T20:22:04.801Z,100845.99
2022-12-12T20:24:34.286Z,100848.38
2022-12-12T20:27:04.628Z,100842.36
2022-12-12T20:29:32.555Z,100840.37
2022-12-12T20:32:00.881Z,100837.16
2022-12-12T20:34:29.499Z,100838.77
2022-12-12T20:36:57.329Z,100833.17
2022-12-12T20:39:26.835Z,100843.18
2022-12-12T20:41:55.068Z,100838.77
2022-12-12T20:44:25.082Z,100844.42
2022-12-12T20:46:53.628Z,100840.43
2022-12-12T20:49:23.528Z,100842.43
2022-12-12T20:51:56.570Z,100844.03
2022-12-12T20:54:26.370Z,100834.84
2022-12-12T20:56:55.574Z,100838.83
2022-12-12T20:59:23.285Z,100837.23
2022-12-12T21:01:51.180Z,100842.43
2022-12-12T21:04:18.986Z,100842.79
2022-12-12T21:06:50.567Z,100840.76
2022-12-12T21:09:24.234Z,100837.91
2022-12-12T21:11:58.817Z,100836.28
2022-12-12T21:14:28.416Z,100833.44
2022-12-12T21:16:56.521Z,100826.96
2022-12-12T21:19:24.629Z,100825.00
2022-12-12T21:21:53.324Z,100826.14
2022-12-12T21:24:21.545Z,100816.92
2022-12-12T21:26:49.568Z,100815.65
2022-12-12T21:29:17.837Z,100810.09
2022-12-12T21:31:51.529Z,100820.09
2022-12-12T21:34:26.129Z,100812.51
2022-12-12T21:36:55.664Z,100805.34
2022-12-12T21:39:28.594Z,100794.98
2022-12-12T21:41:57.410Z,100799.42
2022-12-12T21:44:25.822Z,100795.44
2022-12-12T21:46:53.742Z,100797.86
2022-12-12T21:49:27.412Z,100791.48
2022-12-12T21:51:59.116Z,100785.49
2022-12-12T21:54:27.916Z,100791.88
2022-12-12T21:56:57.181Z,100790.70
2022-12-12T21:59:25.892Z,100782.32
2022-12-12T22:02:01.157Z,100787.49
2022-12-12T22:04:29.370Z,100782.29
2022-12-12T22:07:00.324Z,100787.55
2022-12-12T22:09:28.363Z,100792.30
2022-12-12T22:12:02.961Z,100800.31
2022-12-12T22:14:32.241Z,100792.33
2022-12-12T22:17:00.056Z,100794.36
2022-12-12T22:19:27.914Z,100783.53
2022-12-12T22:21:55.715Z,100791.58
2022-12-12T22:24:23.487Z,100792.79
2022-12-12T22:26:51.945Z,100790.40
2022-12-12T22:29:21.261Z,100788.41
2022-12-12T22:31:51.080Z,100787.23
2022-12-12T22:34:22.328Z,100785.63
2022-12-12T22:36:50.964Z,100786.84
2022-12-12T22:39:24.739Z,100780.39
2022-12-12T22:41:53.560Z,100768.79
2022-12-12T22:44:23.706Z,100776.34
2022-12-12T22:46:53.273Z,100771.53
2022-12-12T22:49:23.681Z,100779.55
2022-12-12T22:51:51.593Z,100779.15
2022-12-12T22:54:19.751Z,100775.55
2022-12-12T22:56:47.367Z,100766.37
2022-12-12T22:59:15.503Z,100768.36
2022-12-12T23:01:43.600Z,100765.55
2022-12-12T23:04:15.406Z,100766.37
2022-12-12T23:06:44.199Z,100759.17
2022-12-12T23:09:21.703Z,100754.76
2022-12-12T23:11:49.442Z,100757.96
2022-12-12T23:14:22.583Z,100751.16
2022-12-12T23:16:51.625Z,100745.14
2022-12-12T23:19:22.415Z,100741.52
2022-12-12T23:21:50.556Z,100744.30
2022-12-12T23:24:18.282Z,100732.75
2022-12-12T23:26:46.167Z,100739.91
2022-12-12T23:29:17.292Z,100737.88
2022-12-12T23:31:45.990Z,100733.86
2022-12-12T23:34:21.726Z,100738.27
2022-12-12T23:36:50.665Z,100731.09
2022-12-12T23:39:18.518Z,100721.50
2022-12-12T23:41:46.334Z,100716.70
2022-12-12T23:44:16.302Z,100719.87
2022-12-12T23:46:45.072Z,100710.28
2022-12-12T23:49:20.525Z,100712.31
2022-12-12T23:51:49.300Z,100706.72
2022-12-12T23:54:20.005Z,100706.72
2022-12-12T23:56:48.748Z,100694.72
2022-12-12T23:59:18.386Z,100703.16
